Terminal Aerodrome Forecast
Issued by NWS

Home | Current Version | Previous Version | Text Only | Print | Product List | Glossary On
Versions: 1 2 3 4 5 6 7 8 9 10 11 12 13 14 15 16 17 18 19 20 21 22 23 24 25 26 27 28 29 30 31 32 33 34 35 36 37 38 39 40 41 42 43 44 45 46 47 48 49 50
000
FTUS44 KHGX 250059 CCA
TAFIAH
TAF COR
KIAH 250059Z 2501/2606 17007KT P6SM FEW040
     FM250200 15005KT P6SM SCT250
     FM251400 VRB03KT P6SM VCSH SCT025
     FM251800 17005KT P6SM VCTS BKN035CB PROB30 2518/2524 5SM TSRA
      BR BKN025CB
     FM260100 15005KT P6SM SCT050=

USA.gov is the U.S. government's official web portal to all federal, state and local government web resources and services.